sensor_id;sensor_type;location;lat;lon;timestamp;temperature;humidity
33903;DHT22;20194;50.950;5.346;2023-11-19T00:00:19;13.00;99.90
33903;DHT22;20194;50.950;5.346;2023-11-19T00:02:46;13.00;99.90
33903;DHT22;20194;50.950;5.346;2023-11-19T00:05:13;13.00;99.90
33903;DHT22;20194;50.950;5.346;2023-11-19T00:07:39;13.00;99.90
33903;DHT22;20194;50.950;5.346;2023-11-19T00:10:12;13.00;99.90
33903;DHT22;20194;50.950;5.346;2023-11-19T00:12:42;13.00;99.90
33903;DHT22;20194;50.950;5.346;2023-11-19T00:15:10;13.10;99.90
33903;DHT22;20194;50.950;5.346;2023-11-19T00:17:44;13.10;99.90
33903;DHT22;20194;50.950;5.346;2023-11-19T00:20:11;13.00;99.90
33903;DHT22;20194;50.950;5.346;2023-11-19T00:22:37;13.00;99.90
33903;DHT22;20194;50.950;5.346;2023-11-19T00:25:03;13.00;99.90
33903;DHT22;20194;50.950;5.346;2023-11-19T00:27:29;13.00;99.90
33903;DHT22;20194;50.950;5.346;2023-11-19T00:29:55;13.00;99.90
33903;DHT22;20194;50.950;5.346;2023-11-19T00:32:20;13.00;99.90
33903;DHT22;20194;50.950;5.346;2023-11-19T00:34:46;13.00;99.90
33903;DHT22;20194;50.950;5.346;2023-11-19T00:37:16;13.00;99.90
33903;DHT22;20194;50.950;5.346;2023-11-19T00:39:42;13.00;99.90
33903;DHT22;20194;50.950;5.346;2023-11-19T00:42:09;13.00;99.90
33903;DHT22;20194;50.950;5.346;2023-11-19T00:44:39;13.00;99.90
33903;DHT22;20194;50.950;5.346;2023-11-19T00:47:05;13.10;99.90
33903;DHT22;20194;50.950;5.346;2023-11-19T00:49:31;13.10;99.90
33903;DHT22;20194;50.950;5.346;2023-11-19T00:52:00;13.10;99.90
33903;DHT22;20194;50.950;5.346;2023-11-19T00:54:27;13.10;99.90
33903;DHT22;20194;50.950;5.346;2023-11-19T00:56:53;13.10;99.90
33903;DHT22;20194;50.950;5.346;2023-11-19T00:59:19;13.10;99.90
33903;DHT22;20194;50.950;5.346;2023-11-19T01:01:45;13.20;99.90
33903;DHT22;20194;50.950;5.346;2023-11-19T01:04:11;13.20;99.90
33903;DHT22;20194;50.950;5.346;2023-11-19T01:06:36;13.20;99.90
33903;DHT22;20194;50.950;5.346;2023-11-19T01:09:02;13.20;99.90
33903;DHT22;20194;50.950;5.346;2023-11-19T01:11:28;13.20;99.90
33903;DHT22;20194;50.950;5.346;2023-11-19T01:13:53;13.20;99.90
33903;DHT22;20194;50.950;5.346;2023-11-19T01:16:20;13.20;99.90
33903;DHT22;20194;50.950;5.346;2023-11-19T01:18:49;13.20;99.90
33903;DHT22;20194;50.950;5.346;2023-11-19T01:21:15;13.30;99.90
33903;DHT22;20194;50.950;5.346;2023-11-19T01:23:41;13.30;99.90
33903;DHT22;20194;50.950;5.346;2023-11-19T01:26:11;13.30;99.90
33903;DHT22;20194;50.950;5.346;2023-11-19T01:28:40;13.40;99.90
33903;DHT22;20194;50.950;5.346;2023-11-19T01:31:11;13.40;99.90
33903;DHT22;20194;50.950;5.346;2023-11-19T01:33:37;13.40;99.90
33903;DHT22;20194;50.950;5.346;2023-11-19T01:36:03;13.40;99.90
33903;DHT22;20194;50.950;5.346;2023-11-19T01:38:29;13.40;99.90
33903;DHT22;20194;50.950;5.346;2023-11-19T01:40:57;13.40;99.90
33903;DHT22;20194;50.950;5.346;2023-11-19T01:43:39;13.40;99.90
33903;DHT22;20194;50.950;5.346;2023-11-19T01:46:08;13.40;99.90
33903;DHT22;20194;50.950;5.346;2023-11-19T01:48:41;13.40;99.90
33903;DHT22;20194;50.950;5.346;2023-11-19T01:51:08;13.40;99.90
33903;DHT22;20194;50.950;5.346;2023-11-19T01:53:36;13.50;99.90
33903;DHT22;20194;50.950;5.346;2023-11-19T01:56:03;13.50;99.90
33903;DHT22;20194;50.950;5.346;2023-11-19T01:58:30;13.50;99.90
33903;DHT22;20194;50.950;5.346;2023-11-19T02:00:56;13.50;99.90
33903;DHT22;20194;50.950;5.346;2023-11-19T02:03:24;13.50;99.90
33903;DHT22;20194;50.950;5.346;2023-11-19T02:05:51;13.50;99.90
33903;DHT22;20194;50.950;5.346;2023-11-19T02:08:18;13.50;99.90
33903;DHT22;20194;50.950;5.346;2023-11-19T02:10:45;13.50;99.90
33903;DHT22;20194;50.950;5.346;2023-11-19T02:13:11;13.60;99.90
33903;DHT22;20194;50.950;5.346;2023-11-19T02:15:40;13.50;99.90
33903;DHT22;20194;50.950;5.346;2023-11-19T02:18:23;13.50;99.90
33903;DHT22;20194;50.950;5.346;2023-11-19T02:20:50;13.50;99.90
33903;DHT22;20194;50.950;5.346;2023-11-19T02:23:17;13.50;99.90
33903;DHT22;20194;50.950;5.346;2023-11-19T02:25:47;13.40;99.90
33903;DHT22;20194;50.950;5.346;2023-11-19T02:28:15;13.30;99.90
33903;DHT22;20194;50.950;5.346;2023-11-19T02:30:42;13.30;99.90
33903;DHT22;20194;50.950;5.346;2023-11-19T02:33:07;13.30;99.90
33903;DHT22;20194;50.950;5.346;2023-11-19T02:35:34;13.20;99.90
33903;DHT22;20194;50.950;5.346;2023-11-19T02:38:00;13.30;99.90
33903;DHT22;20194;50.950;5.346;2023-11-19T02:40:34;13.30;99.90
33903;DHT22;20194;50.950;5.346;2023-11-19T02:43:00;13.30;99.90
33903;DHT22;20194;50.950;5.346;2023-11-19T02:45:27;13.30;99.90
33903;DHT22;20194;50.950;5.346;2023-11-19T02:47:53;13.30;99.90
33903;DHT22;20194;50.950;5.346;2023-11-19T02:50:20;13.30;99.90
33903;DHT22;20194;50.950;5.346;2023-11-19T02:52:54;13.30;99.90
33903;DHT22;20194;50.950;5.346;2023-11-19T02:55:22;13.30;99.90
33903;DHT22;20194;50.950;5.346;2023-11-19T02:57:49;13.30;99.90
33903;DHT22;20194;50.950;5.346;2023-11-19T03:00:19;13.30;99.90
33903;DHT22;20194;50.950;5.346;2023-11-19T03:02:49;13.30;99.90
33903;DHT22;20194;50.950;5.346;2023-11-19T03:05:24;13.20;99.90
33903;DHT22;20194;50.950;5.346;2023-11-19T03:07:50;13.20;99.90
33903;DHT22;20194;50.950;5.346;2023-11-19T03:10:16;13.30;99.90
33903;DHT22;20194;50.950;5.346;2023-11-19T03:12:43;13.20;99.90
33903;DHT22;20194;50.950;5.346;2023-11-19T03:15:09;13.20;99.90
33903;DHT22;20194;50.950;5.346;2023-11-19T03:17:38;13.10;99.90
33903;DHT22;20194;50.950;5.346;2023-11-19T03:20:06;13.10;99.90
33903;DHT22;20194;50.950;5.346;2023-11-19T03:22:33;13.20;99.90
33903;DHT22;20194;50.950;5.346;2023-11-19T03:25:04;13.20;99.90
33903;DHT22;20194;50.950;5.346;2023-11-19T03:27:30;13.20;99.90
33903;DHT22;20194;50.950;5.346;2023-11-19T03:29:55;13.10;99.90
33903;DHT22;20194;50.950;5.346;2023-11-19T03:32:21;13.10;99.90
33903;DHT22;20194;50.950;5.346;2023-11-19T03:34:47;13.10;99.90
33903;DHT22;20194;50.950;5.346;2023-11-19T03:37:15;13.10;99.90
33903;DHT22;20194;50.950;5.346;2023-11-19T03:39:42;13.00;99.90
33903;DHT22;20194;50.950;5.346;2023-11-19T03:42:08;13.00;99.90
33903;DHT22;20194;50.950;5.346;2023-11-19T03:44:34;13.00;99.90
33903;DHT22;20194;50.950;5.346;2023-11-19T03:47:00;13.00;99.90
33903;DHT22;20194;50.950;5.346;2023-11-19T03:49:25;13.00;99.90
33903;DHT22;20194;50.950;5.346;2023-11-19T03:51:51;13.00;99.90
33903;DHT22;20194;50.950;5.346;2023-11-19T03:54:16;13.00;99.90
33903;DHT22;20194;50.950;5.346;2023-11-19T03:56:42;13.00;99.90
33903;DHT22;20194;50.950;5.346;2023-11-19T03:59:08;13.00;99.90
33903;DHT22;20194;50.950;5.346;2023-11-19T04:01:36;13.00;99.90
33903;DHT22;20194;50.950;5.346;2023-11-19T04:04:03;12.90;99.90
33903;DHT22;20194;50.950;5.346;2023-11-19T04:06:28;12.90;99.90
33903;DHT22;20194;50.950;5.346;2023-11-19T04:08:54;12.90;99.90
33903;DHT22;20194;50.950;5.346;2023-11-19T04:11:20;12.90;99.90
33903;DHT22;20194;50.950;5.346;2023-11-19T04:13:46;12.80;99.90
33903;DHT22;20194;50.950;5.346;2023-11-19T04:16:13;12.80;99.90
33903;DHT22;20194;50.950;5.346;2023-11-19T04:18:40;12.80;99.90
33903;DHT22;20194;50.950;5.346;2023-11-19T04:21:07;12.80;99.90
33903;DHT22;20194;50.950;5.346;2023-11-19T04:23:32;12.80;99.90
33903;DHT22;20194;50.950;5.346;2023-11-19T04:25:58;12.80;99.90
33903;DHT22;20194;50.950;5.346;2023-11-19T04:28:24;12.80;99.90
33903;DHT22;20194;50.950;5.346;2023-11-19T04:30:52;12.80;99.90
33903;DHT22;20194;50.950;5.346;2023-11-19T04:33:18;12.80;99.90
33903;DHT22;20194;50.950;5.346;2023-11-19T04:35:43;12.80;99.90
33903;DHT22;20194;50.950;5.346;2023-11-19T04:38:09;12.70;99.90
33903;DHT22;20194;50.950;5.346;2023-11-19T04:40:35;12.70;99.90
33903;DHT22;20194;50.950;5.346;2023-11-19T04:43:01;12.70;99.90
33903;DHT22;20194;50.950;5.346;2023-11-19T04:45:27;12.70;99.90
33903;DHT22;20194;50.950;5.346;2023-11-19T04:47:52;12.70;99.90
33903;DHT22;20194;50.950;5.346;2023-11-19T04:50:18;12.60;99.90
33903;DHT22;20194;50.950;5.346;2023-11-19T04:52:44;12.60;99.90
33903;DHT22;20194;50.950;5.346;2023-11-19T04:55:12;12.60;99.90
33903;DHT22;20194;50.950;5.346;2023-11-19T04:57:39;12.60;99.90
33903;DHT22;20194;50.950;5.346;2023-11-19T05:00:06;12.50;99.90
33903;DHT22;20194;50.950;5.346;2023-11-19T05:02:34;12.50;99.90
33903;DHT22;20194;50.950;5.346;2023-11-19T05:04:59;12.50;99.90
33903;DHT22;20194;50.950;5.346;2023-11-19T05:07:25;12.60;99.90
33903;DHT22;20194;50.950;5.346;2023-11-19T05:09:52;12.70;99.90
33903;DHT22;20194;50.950;5.346;2023-11-19T05:12:17;12.70;99.90
33903;DHT22;20194;50.950;5.346;2023-11-19T05:14:43;12.70;99.90
33903;DHT22;20194;50.950;5.346;2023-11-19T05:17:15;12.70;99.90
33903;DHT22;20194;50.950;5.346;2023-11-19T05:19:40;12.70;99.90
33903;DHT22;20194;50.950;5.346;2023-11-19T05:22:06;12.70;99.90
33903;DHT22;20194;50.950;5.346;2023-11-19T05:24:33;12.70;99.90
33903;DHT22;20194;50.950;5.346;2023-11-19T05:26:58;12.60;99.90
33903;DHT22;20194;50.950;5.346;2023-11-19T05:29:24;12.60;99.90
33903;DHT22;20194;50.950;5.346;2023-11-19T05:31:50;12.60;99.90
33903;DHT22;20194;50.950;5.346;2023-11-19T05:34:15;12.50;99.90
33903;DHT22;20194;50.950;5.346;2023-11-19T05:36:41;12.50;99.90
33903;DHT22;20194;50.950;5.346;2023-11-19T05:39:06;12.50;99.90
33903;DHT22;20194;50.950;5.346;2023-11-19T05:41:32;12.50;99.90
33903;DHT22;20194;50.950;5.346;2023-11-19T05:43:58;12.50;99.90
33903;DHT22;20194;50.950;5.346;2023-11-19T05:46:24;12.50;99.90
33903;DHT22;20194;50.950;5.346;2023-11-19T05:48:51;12.40;99.90
33903;DHT22;20194;50.950;5.346;2023-11-19T05:51:17;12.40;99.90
33903;DHT22;20194;50.950;5.346;2023-11-19T05:53:45;12.40;99.90
33903;DHT22;20194;50.950;5.346;2023-11-19T05:56:11;12.30;99.90
33903;DHT22;20194;50.950;5.346;2023-11-19T05:58:37;12.40;99.90
33903;DHT22;20194;50.950;5.346;2023-11-19T06:01:05;12.40;99.90
33903;DHT22;20194;50.950;5.346;2023-11-19T06:03:33;12.30;99.90
33903;DHT22;20194;50.950;5.346;2023-11-19T06:05:58;12.40;99.90
33903;DHT22;20194;50.950;5.346;2023-11-19T06:08:24;12.30;99.90
33903;DHT22;20194;50.950;5.346;2023-11-19T06:10:52;12.30;99.90
33903;DHT22;20194;50.950;5.346;2023-11-19T06:13:18;12.30;99.90
33903;DHT22;20194;50.950;5.346;2023-11-19T06:15:49;12.20;99.90
33903;DHT22;20194;50.950;5.346;2023-11-19T06:18:16;12.10;99.90
33903;DHT22;20194;50.950;5.346;2023-11-19T06:20:43;12.10;99.90
33903;DHT22;20194;50.950;5.346;2023-11-19T06:23:09;12.10;99.90
33903;DHT22;20194;50.950;5.346;2023-11-19T06:25:34;12.10;99.90
33903;DHT22;20194;50.950;5.346;2023-11-19T06:28:01;12.10;99.90
33903;DHT22;20194;50.950;5.346;2023-11-19T06:30:26;12.00;99.90
33903;DHT22;20194;50.950;5.346;2023-11-19T06:32:54;12.00;99.90
33903;DHT22;20194;50.950;5.346;2023-11-19T06:35:19;12.10;99.90
33903;DHT22;20194;50.950;5.346;2023-11-19T06:37:45;12.10;99.90
33903;DHT22;20194;50.950;5.346;2023-11-19T06:40:11;12.10;99.90
33903;DHT22;20194;50.950;5.346;2023-11-19T06:42:38;12.00;99.90
33903;DHT22;20194;50.950;5.346;2023-11-19T06:45:04;11.90;99.90
33903;DHT22;20194;50.950;5.346;2023-11-19T06:47:31;11.80;99.90
33903;DHT22;20194;50.950;5.346;2023-11-19T06:49:57;11.80;99.90
33903;DHT22;20194;50.950;5.346;2023-11-19T06:52:23;11.90;99.90
33903;DHT22;20194;50.950;5.346;2023-11-19T06:54:50;11.90;99.90
33903;DHT22;20194;50.950;5.346;2023-11-19T06:57:16;11.90;99.90
33903;DHT22;20194;50.950;5.346;2023-11-19T06:59:42;11.90;99.90
33903;DHT22;20194;50.950;5.346;2023-11-19T07:02:08;11.90;99.90
33903;DHT22;20194;50.950;5.346;2023-11-19T07:04:34;12.00;99.90
33903;DHT22;20194;50.950;5.346;2023-11-19T07:07:00;12.00;99.90
33903;DHT22;20194;50.950;5.346;2023-11-19T07:09:26;12.00;99.90
33903;DHT22;20194;50.950;5.346;2023-11-19T07:11:52;11.90;99.90
33903;DHT22;20194;50.950;5.346;2023-11-19T07:14:18;12.00;99.90
33903;DHT22;20194;50.950;5.346;2023-11-19T07:16:44;11.90;99.90
33903;DHT22;20194;50.950;5.346;2023-11-19T07:19:11;11.90;99.90
33903;DHT22;20194;50.950;5.346;2023-11-19T07:21:41;11.80;99.90
33903;DHT22;20194;50.950;5.346;2023-11-19T07:24:10;11.90;99.90
33903;DHT22;20194;50.950;5.346;2023-11-19T07:26:42;11.90;99.90
33903;DHT22;20194;50.950;5.346;2023-11-19T07:29:08;11.90;99.90
33903;DHT22;20194;50.950;5.346;2023-11-19T07:31:33;11.90;99.90
33903;DHT22;20194;50.950;5.346;2023-11-19T07:33:59;11.90;99.90
33903;DHT22;20194;50.950;5.346;2023-11-19T07:36:25;11.90;99.90
33903;DHT22;20194;50.950;5.346;2023-11-19T07:38:53;11.90;99.90
33903;DHT22;20194;50.950;5.346;2023-11-19T07:41:19;11.90;99.90
33903;DHT22;20194;50.950;5.346;2023-11-19T07:43:45;11.90;99.90
33903;DHT22;20194;50.950;5.346;2023-11-19T07:46:12;11.90;99.90
33903;DHT22;20194;50.950;5.346;2023-11-19T07:48:39;11.90;99.90
33903;DHT22;20194;50.950;5.346;2023-11-19T07:51:05;11.90;99.90
33903;DHT22;20194;50.950;5.346;2023-11-19T07:53:31;12.00;99.90
33903;DHT22;20194;50.950;5.346;2023-11-19T07:56:01;11.90;99.90
33903;DHT22;20194;50.950;5.346;2023-11-19T07:58:27;11.90;99.90
33903;DHT22;20194;50.950;5.346;2023-11-19T08:00:53;11.90;99.90
33903;DHT22;20194;50.950;5.346;2023-11-19T08:03:19;11.90;99.90
33903;DHT22;20194;50.950;5.346;2023-11-19T08:05:45;11.90;99.90
33903;DHT22;20194;50.950;5.346;2023-11-19T08:08:11;11.90;99.90
33903;DHT22;20194;50.950;5.346;2023-11-19T08:10:37;12.00;99.90
33903;DHT22;20194;50.950;5.346;2023-11-19T08:13:03;12.00;99.90
33903;DHT22;20194;50.950;5.346;2023-11-19T08:15:29;12.00;99.90
33903;DHT22;20194;50.950;5.346;2023-11-19T08:17:54;12.00;99.90
33903;DHT22;20194;50.950;5.346;2023-11-19T08:20:20;12.00;99.90
33903;DHT22;20194;50.950;5.346;2023-11-19T08:22:46;12.00;99.90
33903;DHT22;20194;50.950;5.346;2023-11-19T08:25:11;12.00;99.90
33903;DHT22;20194;50.950;5.346;2023-11-19T08:27:37;12.00;99.90
33903;DHT22;20194;50.950;5.346;2023-11-19T08:30:04;12.10;99.90
33903;DHT22;20194;50.950;5.346;2023-11-19T08:32:31;12.20;99.90
33903;DHT22;20194;50.950;5.346;2023-11-19T08:34:57;12.20;99.90
33903;DHT22;20194;50.950;5.346;2023-11-19T08:37:22;12.30;99.90
33903;DHT22;20194;50.950;5.346;2023-11-19T08:39:49;12.30;99.90
33903;DHT22;20194;50.950;5.346;2023-11-19T08:42:17;12.30;99.90
33903;DHT22;20194;50.950;5.346;2023-11-19T08:44:51;12.40;99.90
33903;DHT22;20194;50.950;5.346;2023-11-19T08:47:20;12.50;99.80
33903;DHT22;20194;50.950;5.346;2023-11-19T08:49:46;12.50;99.60
33903;DHT22;20194;50.950;5.346;2023-11-19T08:52:11;12.50;99.40
33903;DHT22;20194;50.950;5.346;2023-11-19T08:54:38;12.50;99.20
33903;DHT22;20194;50.950;5.346;2023-11-19T08:57:07;12.50;99.40
33903;DHT22;20194;50.950;5.346;2023-11-19T08:59:34;12.60;99.30
33903;DHT22;20194;50.950;5.346;2023-11-19T09:02:00;12.60;98.80
33903;DHT22;20194;50.950;5.346;2023-11-19T09:04:25;12.60;99.00
33903;DHT22;20194;50.950;5.346;2023-11-19T09:06:51;12.60;98.80
33903;DHT22;20194;50.950;5.346;2023-11-19T09:09:17;12.60;99.00
33903;DHT22;20194;50.950;5.346;2023-11-19T09:11:42;12.60;99.00
33903;DHT22;20194;50.950;5.346;2023-11-19T09:14:08;12.60;98.70
33903;DHT22;20194;50.950;5.346;2023-11-19T09:16:34;12.70;98.70
33903;DHT22;20194;50.950;5.346;2023-11-19T09:19:00;12.70;98.30
33903;DHT22;20194;50.950;5.346;2023-11-19T09:21:27;12.80;97.90
33903;DHT22;20194;50.950;5.346;2023-11-19T09:23:55;13.00;98.00
33903;DHT22;20194;50.950;5.346;2023-11-19T09:26:21;13.00;98.00
33903;DHT22;20194;50.950;5.346;2023-11-19T09:28:47;13.10;97.20
33903;DHT22;20194;50.950;5.346;2023-11-19T09:31:16;13.20;97.30
33903;DHT22;20194;50.950;5.346;2023-11-19T09:33:43;13.10;97.10
33903;DHT22;20194;50.950;5.346;2023-11-19T09:36:09;13.10;97.30
33903;DHT22;20194;50.950;5.346;2023-11-19T09:38:36;13.10;97.10
33903;DHT22;20194;50.950;5.346;2023-11-19T09:41:05;13.00;97.20
33903;DHT22;20194;50.950;5.346;2023-11-19T09:43:35;13.00;97.60
33903;DHT22;20194;50.950;5.346;2023-11-19T09:46:05;13.10;97.30
33903;DHT22;20194;50.950;5.346;2023-11-19T09:48:33;13.10;96.10
33903;DHT22;20194;50.950;5.346;2023-11-19T09:51:00;13.10;95.60
33903;DHT22;20194;50.950;5.346;2023-11-19T09:53:26;13.10;95.80
33903;DHT22;20194;50.950;5.346;2023-11-19T09:55:53;13.00;98.10
33903;DHT22;20194;50.950;5.346;2023-11-19T09:58:19;12.80;99.90
33903;DHT22;20194;50.950;5.346;2023-11-19T10:00:44;12.80;99.90
33903;DHT22;20194;50.950;5.346;2023-11-19T10:03:11;12.70;99.90
33903;DHT22;20194;50.950;5.346;2023-11-19T10:05:38;12.80;99.90
33903;DHT22;20194;50.950;5.346;2023-11-19T10:08:05;13.00;99.90
33903;DHT22;20194;50.950;5.346;2023-11-19T10:10:31;13.20;99.60
33903;DHT22;20194;50.950;5.346;2023-11-19T10:12:56;13.30;98.30
33903;DHT22;20194;50.950;5.346;2023-11-19T10:15:24;13.40;97.90
33903;DHT22;20194;50.950;5.346;2023-11-19T10:17:55;13.50;96.20
33903;DHT22;20194;50.950;5.346;2023-11-19T10:20:20;13.70;95.80
33903;DHT22;20194;50.950;5.346;2023-11-19T10:22:46;13.80;95.30
33903;DHT22;20194;50.950;5.346;2023-11-19T10:25:28;14.00;95.30
33903;DHT22;20194;50.950;5.346;2023-11-19T10:27:55;14.10;93.60
33903;DHT22;20194;50.950;5.346;2023-11-19T10:30:23;14.10;93.40
33903;DHT22;20194;50.950;5.346;2023-11-19T10:33:06;14.10;93.90
33903;DHT22;20194;50.950;5.346;2023-11-19T10:35:33;14.10;93.80
33903;DHT22;20194;50.950;5.346;2023-11-19T10:38:00;14.10;94.00
33903;DHT22;20194;50.950;5.346;2023-11-19T10:40:47;14.00;94.10
33903;DHT22;20194;50.950;5.346;2023-11-19T10:43:14;14.10;94.40
33903;DHT22;20194;50.950;5.346;2023-11-19T10:45:40;14.00;94.30
33903;DHT22;20194;50.950;5.346;2023-11-19T10:48:06;13.90;94.60
33903;DHT22;20194;50.950;5.346;2023-11-19T10:50:38;13.70;95.10
33903;DHT22;20194;50.950;5.346;2023-11-19T10:53:08;13.60;96.00
33903;DHT22;20194;50.950;5.346;2023-11-19T10:55:36;13.60;96.20
33903;DHT22;20194;50.950;5.346;2023-11-19T10:58:05;13.60;96.20
33903;DHT22;20194;50.950;5.346;2023-11-19T11:00:39;13.70;96.40
33903;DHT22;20194;50.950;5.346;2023-11-19T11:03:35;13.80;95.80
33903;DHT22;20194;50.950;5.346;2023-11-19T11:06:05;13.90;95.50
33903;DHT22;20194;50.950;5.346;2023-11-19T11:08:31;14.00;95.10
33903;DHT22;20194;50.950;5.346;2023-11-19T11:10:57;14.00;94.40
33903;DHT22;20194;50.950;5.346;2023-11-19T11:13:25;13.90;94.50
33903;DHT22;20194;50.950;5.346;2023-11-19T11:15:53;13.90;95.60
33903;DHT22;20194;50.950;5.346;2023-11-19T11:18:21;14.00;95.50
33903;DHT22;20194;50.950;5.346;2023-11-19T11:20:49;13.90;95.00
33903;DHT22;20194;50.950;5.346;2023-11-19T11:39:34;13.70;96.90
33903;DHT22;20194;50.950;5.346;2023-11-19T11:45:07;13.40;97.20
33903;DHT22;20194;50.950;5.346;2023-11-19T11:50:17;13.30;98.30
33903;DHT22;20194;50.950;5.346;2023-11-19T11:55:28;13.20;99.50
33903;DHT22;20194;50.950;5.346;2023-11-19T11:57:59;13.20;99.30
33903;DHT22;20194;50.950;5.346;2023-11-19T12:00:32;13.20;98.60
33903;DHT22;20194;50.950;5.346;2023-11-19T12:03:04;13.30;99.20
33903;DHT22;20194;50.950;5.346;2023-11-19T12:05:30;13.20;97.90
33903;DHT22;20194;50.950;5.346;2023-11-19T12:08:00;13.30;98.20
33903;DHT22;20194;50.950;5.346;2023-11-19T12:10:31;13.20;98.20
33903;DHT22;20194;50.950;5.346;2023-11-19T12:13:01;13.30;98.30
33903;DHT22;20194;50.950;5.346;2023-11-19T12:15:27;13.40;97.90
33903;DHT22;20194;50.950;5.346;2023-11-19T12:17:54;13.40;97.60
33903;DHT22;20194;50.950;5.346;2023-11-19T12:20:22;13.50;97.00
33903;DHT22;20194;50.950;5.346;2023-11-19T12:22:48;13.60;97.10
33903;DHT22;20194;50.950;5.346;2023-11-19T12:25:16;13.60;96.30
33903;DHT22;20194;50.950;5.346;2023-11-19T12:27:44;13.60;95.80
33903;DHT22;20194;50.950;5.346;2023-11-19T12:30:11;13.60;96.40
33903;DHT22;20194;50.950;5.346;2023-11-19T12:32:40;13.70;96.00
33903;DHT22;20194;50.950;5.346;2023-11-19T12:35:07;13.70;96.10
33903;DHT22;20194;50.950;5.346;2023-11-19T12:37:41;13.90;94.90
33903;DHT22;20194;50.950;5.346;2023-11-19T12:40:25;14.00;94.20
33903;DHT22;20194;50.950;5.346;2023-11-19T12:42:52;14.00;94.90
33903;DHT22;20194;50.950;5.346;2023-11-19T12:45:18;14.10;93.40
33903;DHT22;20194;50.950;5.346;2023-11-19T12:47:46;14.00;93.20
33903;DHT22;20194;50.950;5.346;2023-11-19T12:50:13;14.00;93.10
33903;DHT22;20194;50.950;5.346;2023-11-19T12:52:39;13.90;93.10
33903;DHT22;20194;50.950;5.346;2023-11-19T12:55:27;13.90;92.90
33903;DHT22;20194;50.950;5.346;2023-11-19T12:57:53;13.80;92.90
33903;DHT22;20194;50.950;5.346;2023-11-19T13:00:24;13.80;93.00
33903;DHT22;20194;50.950;5.346;2023-11-19T13:02:56;13.80;93.60
33903;DHT22;20194;50.950;5.346;2023-11-19T13:05:26;13.80;92.90
33903;DHT22;20194;50.950;5.346;2023-11-19T13:10:24;13.70;91.90
33903;DHT22;20194;50.950;5.346;2023-11-19T13:15:29;13.50;93.40
33903;DHT22;20194;50.950;5.346;2023-11-19T13:17:55;13.50;93.50
33903;DHT22;20194;50.950;5.346;2023-11-19T13:20:21;13.40;93.10
33903;DHT22;20194;50.950;5.346;2023-11-19T13:22:56;13.40;93.70
33903;DHT22;20194;50.950;5.346;2023-11-19T13:25:22;13.40;94.40
33903;DHT22;20194;50.950;5.346;2023-11-19T13:27:48;13.30;94.80
33903;DHT22;20194;50.950;5.346;2023-11-19T13:30:14;13.40;95.40
33903;DHT22;20194;50.950;5.346;2023-11-19T13:32:40;13.40;95.20
33903;DHT22;20194;50.950;5.346;2023-11-19T13:35:06;13.30;95.20
33903;DHT22;20194;50.950;5.346;2023-11-19T13:37:34;13.20;95.50
33903;DHT22;20194;50.950;5.346;2023-11-19T13:40:00;13.20;95.60
33903;DHT22;20194;50.950;5.346;2023-11-19T13:42:26;13.30;96.00
33903;DHT22;20194;50.950;5.346;2023-11-19T13:44:52;13.40;95.90
33903;DHT22;20194;50.950;5.346;2023-11-19T13:47:18;13.40;95.30
33903;DHT22;20194;50.950;5.346;2023-11-19T13:49:47;13.30;95.50
33903;DHT22;20194;50.950;5.346;2023-11-19T13:52:13;13.30;95.50
33903;DHT22;20194;50.950;5.346;2023-11-19T13:54:38;13.30;95.70
33903;DHT22;20194;50.950;5.346;2023-11-19T13:57:04;13.40;95.70
33903;DHT22;20194;50.950;5.346;2023-11-19T13:59:33;13.40;94.90
33903;DHT22;20194;50.950;5.346;2023-11-19T14:02:05;13.40;94.50
33903;DHT22;20194;50.950;5.346;2023-11-19T14:04:33;13.40;94.70
33903;DHT22;20194;50.950;5.346;2023-11-19T14:06:58;13.40;94.50
33903;DHT22;20194;50.950;5.346;2023-11-19T14:09:24;13.40;93.90
33903;DHT22;20194;50.950;5.346;2023-11-19T14:11:50;13.40;93.60
33903;DHT22;20194;50.950;5.346;2023-11-19T14:14:16;13.40;94.50
33903;DHT22;20194;50.950;5.346;2023-11-19T14:16:42;13.20;95.00
33903;DHT22;20194;50.950;5.346;2023-11-19T14:19:08;13.20;95.70
33903;DHT22;20194;50.950;5.346;2023-11-19T14:21:33;13.10;95.70
33903;DHT22;20194;50.950;5.346;2023-11-19T14:23:59;13.10;96.40
33903;DHT22;20194;50.950;5.346;2023-11-19T14:26:25;13.10;96.60
33903;DHT22;20194;50.950;5.346;2023-11-19T14:28:50;13.00;97.00
33903;DHT22;20194;50.950;5.346;2023-11-19T14:31:16;12.90;97.10
33903;DHT22;20194;50.950;5.346;2023-11-19T14:33:42;12.90;97.20
33903;DHT22;20194;50.950;5.346;2023-11-19T14:36:08;12.90;96.80
33903;DHT22;20194;50.950;5.346;2023-11-19T14:38:33;12.90;96.80
33903;DHT22;20194;50.950;5.346;2023-11-19T14:40:59;13.00;96.40
33903;DHT22;20194;50.950;5.346;2023-11-19T14:43:26;13.00;96.40
33903;DHT22;20194;50.950;5.346;2023-11-19T14:45:52;12.90;95.80
33903;DHT22;20194;50.950;5.346;2023-11-19T14:48:18;12.90;96.10
33903;DHT22;20194;50.950;5.346;2023-11-19T14:50:44;12.90;96.10
33903;DHT22;20194;50.950;5.346;2023-11-19T14:53:12;13.00;96.20
33903;DHT22;20194;50.950;5.346;2023-11-19T14:55:39;13.00;95.90
33903;DHT22;20194;50.950;5.346;2023-11-19T14:58:04;13.00;95.30
33903;DHT22;20194;50.950;5.346;2023-11-19T15:00:31;13.00;95.60
33903;DHT22;20194;50.950;5.346;2023-11-19T15:02:56;13.00;95.20
33903;DHT22;20194;50.950;5.346;2023-11-19T15:05:22;13.10;94.90
33903;DHT22;20194;50.950;5.346;2023-11-19T15:07:48;13.10;95.00
33903;DHT22;20194;50.950;5.346;2023-11-19T15:10:14;13.00;95.00
33903;DHT22;20194;50.950;5.346;2023-11-19T15:12:39;13.00;95.30
33903;DHT22;20194;50.950;5.346;2023-11-19T15:15:10;13.00;95.10
33903;DHT22;20194;50.950;5.346;2023-11-19T15:17:38;13.00;95.10
33903;DHT22;20194;50.950;5.346;2023-11-19T15:20:05;13.00;95.10
33903;DHT22;20194;50.950;5.346;2023-11-19T15:22:31;13.00;95.20
33903;DHT22;20194;50.950;5.346;2023-11-19T15:24:57;12.90;95.40
33903;DHT22;20194;50.950;5.346;2023-11-19T15:27:23;13.00;94.50
33903;DHT22;20194;50.950;5.346;2023-11-19T15:29:48;13.00;94.10
33903;DHT22;20194;50.950;5.346;2023-11-19T15:32:14;13.00;94.20
33903;DHT22;20194;50.950;5.346;2023-11-19T15:34:40;13.00;93.40
33903;DHT22;20194;50.950;5.346;2023-11-19T15:37:07;13.00;93.50
33903;DHT22;20194;50.950;5.346;2023-11-19T15:39:33;13.00;93.80
33903;DHT22;20194;50.950;5.346;2023-11-19T15:42:01;12.90;94.40
33903;DHT22;20194;50.950;5.346;2023-11-19T15:44:27;12.90;94.60
33903;DHT22;20194;50.950;5.346;2023-11-19T15:46:54;13.00;94.10
33903;DHT22;20194;50.950;5.346;2023-11-19T15:49:20;13.00;93.80
33903;DHT22;20194;50.950;5.346;2023-11-19T15:51:46;13.00;93.60
33903;DHT22;20194;50.950;5.346;2023-11-19T15:54:11;12.90;93.80
33903;DHT22;20194;50.950;5.346;2023-11-19T15:56:37;12.90;93.80
33903;DHT22;20194;50.950;5.346;2023-11-19T15:59:03;13.00;93.90